Time;durP1;ratioP1;P1;durP2;ratioP2;P2;SDS_P1;SDS_P2;PMS_P1;PMS_P2;Temp;Humidity;BMP_temperature;BMP_pressure;BME280_temperature;BME280_humidity;BME280_pressure;Samples;Min_cycle;Max_cycle;Signal;HPM_P1;HPM_P2
2022/02/22 00:00:38;;;;;;;20.50;10.00;;;;;;;3.05;75.25;98642.38;25158;1313;3050025;-73
2022/02/22 00:03:08;;;;;;;26.30;11.30;;;;;;;3.04;75.06;98640.33;25211;1313;3027190;-72
2022/02/22 00:05:38;;;;;;;23.50;8.10;;;;;;;2.95;75.64;98646.74;25140;1313;3026815;-72
2022/02/22 00:08:07;;;;;;;20.40;8.30;;;;;;;3.28;74.61;98640.67;25097;1315;3051246;-77
2022/02/22 00:10:36;;;;;;;26.00;8.40;;;;;;;3.64;73.24;98638.52;25183;1315;3026409;-71
2022/02/22 00:13:06;;;;;;;18.00;7.70;;;;;;;3.82;72.33;98633.25;25113;1315;3026568;-74
2022/02/22 00:15:35;;;;;;;24.90;8.90;;;;;;;3.69;72.52;98632.06;25130;1313;3027058;-74
2022/02/22 00:18:04;;;;;;;22.10;9.10;;;;;;;3.39;73.48;98627.71;25139;1313;3071926;-72
2022/02/22 00:20:33;;;;;;;19.60;8.60;;;;;;;3.37;73.58;98629.01;25121;1312;3026006;-69
2022/02/22 00:23:05;;;;;;;22.00;8.50;;;;;;;3.17;74.14;98631.10;25166;1313;3026833;-69
2022/02/22 00:25:35;;;;;;;23.40;9.20;;;;;;;3.05;74.71;98629.36;25180;1313;3071150;-71
2022/02/22 00:28:04;;;;;;;17.70;8.40;;;;;;;2.88;75.22;98629.91;25124;1312;3026676;-74
2022/02/22 00:30:33;;;;;;;17.90;8.10;;;;;;;2.91;75.60;98625.30;25112;1312;3052759;-71
2022/02/22 00:33:03;;;;;;;16.10;7.00;;;;;;;3.39;74.36;98617.83;25155;1312;3028228;-69
2022/02/22 00:35:32;;;;;;;16.20;7.40;;;;;;;3.86;72.33;98621.26;25174;1312;3053958;-74
2022/02/22 00:38:01;;;;;;;13.50;6.70;;;;;;;3.70;72.42;98623.23;25112;1312;3026070;-70
2022/02/22 00:40:30;;;;;;;14.90;7.60;;;;;;;3.56;72.77;98626.80;25166;1315;3028668;-78
2022/02/22 00:42:59;;;;;;;19.30;8.10;;;;;;;3.45;73.20;98627.80;25144;1312;3052128;-72
2022/02/22 00:45:28;;;;;;;20.80;8.40;;;;;;;3.34;73.56;98630.88;25199;1313;3026557;-69
2022/02/22 00:47:57;;;;;;;18.90;8.10;;;;;;;3.19;74.00;98625.48;25134;1313;3047882;-69
2022/02/22 00:50:28;;;;;;;23.80;7.90;;;;;;;3.01;74.67;98622.09;25177;1313;3026617;-69
2022/02/22 00:52:58;;;;;;;22.80;8.70;;;;;;;2.93;75.23;98626.77;25207;1313;3026360;-75
2022/02/22 00:55:27;;;;;;;20.40;7.70;;;;;;;2.85;75.49;98627.10;25183;1315;3026184;-72
2022/02/22 00:57:56;;;;;;;17.60;7.40;;;;;;;3.23;74.88;98622.18;25258;1313;3055568;-70
2022/02/22 01:00:25;;;;;;;16.40;7.60;;;;;;;3.54;73.39;98612.48;25311;1315;3027500;-72
2022/02/22 01:02:54;;;;;;;23.90;7.70;;;;;;;3.56;73.43;98607.56;25199;1313;3051899;-71
2022/02/22 01:05:23;;;;;;;20.10;8.50;;;;;;;3.64;72.93;98599.41;25220;1313;3029153;-71
2022/02/22 01:07:51;;;;;;;19.90;8.00;;;;;;;3.28;74.35;98608.48;25146;1313;3055885;-72
2022/02/22 01:10:20;;;;;;;21.40;8.00;;;;;;;3.21;75.03;98613.96;25237;1313;3026521;-69
2022/02/22 01:12:49;;;;;;;20.10;8.70;;;;;;;3.15;75.37;98605.27;25260;1313;3053668;-69
2022/02/22 01:15:18;;;;;;;26.10;9.00;;;;;;;2.91;76.01;98608.67;25225;1313;3026460;-71
2022/02/22 01:17:48;;;;;;;16.50;6.80;;;;;;;2.97;75.82;98610.68;25241;1313;3055380;-68
2022/02/22 01:20:17;;;;;;;20.50;7.30;;;;;;;3.38;74.50;98600.77;25135;1313;3026815;-64
2022/02/22 01:22:47;;;;;;;22.90;9.30;;;;;;;3.94;72.34;98603.91;25179;1312;3048853;-70
2022/02/22 01:25:16;;;;;;;18.00;8.10;;;;;;;3.84;72.21;98601.77;25167;1315;3026856;-73
2022/02/22 01:27:45;;;;;;;16.10;8.40;;;;;;;3.65;72.51;98599.52;25147;1312;3026388;-68
2022/02/22 01:30:14;;;;;;;20.40;8.40;;;;;;;3.69;72.35;98596.42;25204;1311;3049146;-72
2022/02/22 01:32:43;;;;;;;21.50;8.20;;;;;;;3.62;72.23;98591.52;25137;1312;3027175;-75
2022/02/22 01:35:12;;;;;;;25.80;9.70;;;;;;;3.33;73.17;98589.39;25141;1314;3071076;-71
2022/02/22 01:37:42;;;;;;;20.80;8.20;;;;;;;3.17;73.93;98591.45;25189;1312;3026753;-69
2022/02/22 01:40:12;;;;;;;29.60;9.90;;;;;;;3.07;74.19;98597.61;25170;1311;3026710;-67
2022/02/22 01:42:41;;;;;;;20.80;9.10;;;;;;;2.93;74.72;98603.05;25148;1313;3070513;-73
2022/02/22 01:45:10;;;;;;;20.00;8.40;;;;;;;2.85;74.85;98596.48;25193;1312;3026160;-75
2022/02/22 01:47:39;;;;;;;18.70;7.80;;;;;;;3.17;74.24;98600.81;25185;1312;3051266;-69
2022/02/22 01:50:09;;;;;;;16.40;6.90;;;;;;;3.37;73.06;98610.66;25175;1311;3029628;-72
2022/02/22 01:52:38;;;;;;;21.30;7.80;;;;;;;3.34;72.74;98612.34;25242;1312;3053006;-68
2022/02/22 01:55:19;;;;;;;19.30;7.50;;;;;;;3.15;73.42;98614.39;25198;1312;3053611;-66
2022/02/22 01:57:48;;;;;;;13.70;7.40;;;;;;;3.14;73.55;98617.41;25217;1312;3027149;-76
2022/02/22 02:00:17;;;;;;;17.40;8.60;;;;;;;3.03;73.73;98613.05;25153;1312;3029866;-76
2022/02/22 02:02:49;;;;;;;22.30;9.30;;;;;;;2.71;74.90;98612.98;25212;1311;3055300;-71
2022/02/22 02:05:18;;;;;;;19.70;9.10;;;;;;;2.66;75.28;98607.48;25177;1312;3027399;-73
2022/02/22 02:08:01;;;;;;;21.10;9.80;;;;;;;2.58;75.35;98604.89;25181;1312;3050424;-70
2022/02/22 02:10:31;;;;;;;11.30;6.70;;;;;;;2.53;75.82;98605.44;25186;1312;3026265;-70
2022/02/22 02:13:00;;;;;;;20.50;7.90;;;;;;;3.02;74.56;98597.83;25130;1312;3028297;-73
2022/02/22 02:15:28;;;;;;;18.70;8.10;;;;;;;3.69;72.22;98589.11;25219;1312;3047222;-69
2022/02/22 02:17:57;;;;;;;24.40;8.80;;;;;;;3.61;71.63;98584.48;25167;1310;3026468;-70
2022/02/22 02:20:26;;;;;;;19.30;8.40;;;;;;;3.31;72.27;98589.81;25159;1311;3070550;-71
2022/02/22 02:22:56;;;;;;;23.80;9.30;;;;;;;2.94;73.42;98596.79;25164;1312;3026551;-67
2022/02/22 02:25:25;;;;;;;20.80;9.40;;;;;;;2.64;74.49;98590.82;25144;1312;3053093;-71
2022/02/22 02:27:54;;;;;;;21.40;9.30;;;;;;;2.40;75.32;98599.91;25146;1315;3026795;-68
2022/02/22 02:30:23;;;;;;;20.60;8.70;;;;;;;2.33;75.86;98601.42;25133;1312;3052594;-69
2022/02/22 02:32:52;;;;;;;23.60;10.00;;;;;;;2.30;76.00;98601.19;25160;1313;3027017;-70
2022/02/22 02:35:21;;;;;;;21.50;7.40;;;;;;;2.17;76.62;98603.63;25123;1315;3049763;-72
2022/02/22 02:37:50;;;;;;;22.90;9.20;;;;;;;2.57;75.47;98597.29;25144;1315;3028253;-74
2022/02/22 02:40:19;;;;;;;21.50;9.00;;;;;;;2.97;73.97;98593.90;25107;1313;3058562;-73
2022/02/22 02:42:48;;;;;;;19.30;8.50;;;;;;;2.92;73.51;98590.47;25149;1312;3026515;-73
2022/02/22 02:45:17;;;;;;;22.00;8.90;;;;;;;2.79;74.22;98595.90;25130;1312;3052042;-74
2022/02/22 02:47:46;;;;;;;20.00;8.80;;;;;;;2.80;74.23;98594.29;25195;1312;3026905;-71
2022/02/22 02:50:15;;;;;;;17.90;8.40;;;;;;;2.56;74.81;98599.09;25200;1312;3054309;-73
2022/02/22 02:52:44;;;;;;;19.90;9.60;;;;;;;2.32;75.31;98597.30;25180;1312;3026818;-71
2022/02/22 02:55:13;;;;;;;17.90;9.70;;;;;;;2.27;76.07;98595.30;25172;1312;3051072;-72
2022/02/22 02:57:42;;;;;;;20.40;10.10;;;;;;;2.11;76.36;98600.92;25229;1312;3028015;-72
2022/02/22 03:00:12;;;;;;;14.80;6.50;;;;;;;2.14;76.93;98593.58;25154;1312;3070854;-76
2022/02/22 03:02:41;;;;;;;14.90;7.50;;;;;;;2.62;75.49;98585.20;25123;1314;3026969;-70
2022/02/22 03:05:10;;;;;;;18.40;7.70;;;;;;;2.98;73.72;98584.50;25174;1312;3026308;-72
2022/02/22 03:07:39;;;;;;;17.10;7.70;;;;;;;3.14;73.29;98587.98;25121;1312;3070420;-67
2022/02/22 03:10:08;;;;;;;19.20;8.30;;;;;;;2.92;73.49;98593.59;25182;1312;3026530;-70
2022/02/22 03:12:38;;;;;;;20.90;8.00;;;;;;;2.77;74.30;98593.02;25163;1312;3053679;-73
2022/02/22 03:15:07;;;;;;;18.00;7.30;;;;;;;2.67;74.76;98598.29;25160;1312;3026513;-74
2022/02/22 03:17:38;;;;;;;19.70;8.70;;;;;;;2.77;74.72;98590.78;25160;1313;3055346;-69
2022/02/22 03:20:08;;;;;;;24.00;8.90;;;;;;;2.74;74.45;98589.52;25189;1312;3026496;-71
2022/02/22 03:22:43;;;;;;;23.00;7.90;;;;;;;2.58;75.13;98590.89;25172;1312;3051798;-73
2022/02/22 03:25:12;;;;;;;;;;;;;;;2.54;75.73;98593.63;25147;1315;3053257;-70
2022/02/22 03:27:41;;;;;;;15.60;7.00;;;;;;;3.02;74.53;98586.95;25160;1312;3026828;-70
2022/02/22 03:30:10;;;;;;;20.00;7.60;;;;;;;3.65;72.42;98583.58;25190;1312;3049684;-71
2022/02/22 03:32:39;;;;;;;18.10;7.80;;;;;;;3.78;71.49;98583.51;25152;1311;3029023;-71
2022/02/22 03:35:08;;;;;;;24.60;8.50;;;;;;;3.61;72.08;98586.38;25197;1312;3026351;-72
2022/02/22 03:37:38;;;;;;;20.10;9.10;;;;;;;3.40;73.28;98588.35;25126;1312;3052076;-72
2022/02/22 03:40:07;;;;;;;23.90;10.00;;;;;;;3.07;74.79;98589.87;25220;1310;3028669;-68
2022/02/22 03:42:40;;;;;;;27.50;10.70;;;;;;;2.99;75.40;98581.71;25188;1312;3058018;-75
2022/02/22 03:45:11;;;;;;;25.60;9.80;;;;;;;3.01;75.54;98584.23;25135;1311;3026404;-71
2022/02/22 03:47:40;;;;;;;24.20;10.40;;;;;;;2.86;76.02;98582.11;25189;1312;3026783;-72
2022/02/22 03:50:10;;;;;;;20.10;9.00;;;;;;;2.87;76.61;98583.42;25199;1312;3028798;-74
2022/02/22 03:52:39;;;;;;;19.60;8.40;;;;;;;3.19;76.07;98584.11;25103;1312;3048828;-68
2022/02/22 03:55:09;;;;;;;23.30;8.70;;;;;;;3.50;74.69;98579.08;25180;1312;3026594;-70
2022/02/22 03:57:38;;;;;;;25.50;8.90;;;;;;;3.71;74.02;98582.82;25135;1312;3055732;-72
2022/02/22 04:00:09;;;;;;;21.50;9.50;;;;;;;3.43;74.69;98594.98;25190;1311;3026610;-72
2022/02/22 04:02:38;;;;;;;23.50;10.40;;;;;;;3.10;76.11;98597.48;25214;1312;3054122;-73
2022/02/22 04:05:08;;;;;;;23.00;10.30;;;;;;;3.17;75.98;98592.86;25157;1312;3027613;-74
2022/02/22 04:07:37;;;;;;;24.60;9.80;;;;;;;3.08;76.40;98592.04;25151;1312;3054443;-69
2022/02/22 04:10:07;;;;;;;35.10;10.20;;;;;;;3.12;75.96;98585.14;25166;1312;3026443;-68
2022/02/22 04:12:41;;;;;;;25.30;11.60;;;;;;;2.81;77.35;98585.91;25164;1310;3050471;-70
2022/02/22 04:15:10;;;;;;;35.00;10.60;;;;;;;2.71;78.13;98585.50;25145;1312;3026355;-73
2022/02/22 04:17:40;;;;;;;19.10;9.80;;;;;;;2.98;78.18;98582.45;25157;1312;3069419;-70
2022/02/22 04:20:10;;;;;;;26.10;11.40;;;;;;;3.48;76.34;98581.42;25133;1312;3027195;-73
2022/02/22 04:22:40;;;;;;;29.10;11.00;;;;;;;3.52;76.05;98584.91;25227;1312;3051117;-68
2022/02/22 04:25:10;;;;;;;29.60;12.60;;;;;;;3.35;76.29;98587.02;25171;1312;3026422;-74
2022/02/22 04:27:41;;;;;;;30.00;12.90;;;;;;;3.28;77.15;98592.91;25203;1312;3026896;-72
2022/02/22 04:30:17;;;;;;;35.40;13.00;;;;;;;2.98;78.31;98593.67;25168;1312;3054873;-66
2022/02/22 04:32:47;;;;;;;38.50;13.40;;;;;;;3.03;78.55;98593.83;25133;1315;3026507;-66
2022/02/22 04:35:16;;;;;;;34.40;15.60;;;;;;;2.99;78.66;98600.37;25173;1315;3026735;-67
2022/02/22 04:37:45;;;;;;;34.10;12.40;;;;;;;2.97;79.28;98603.95;25104;1313;3053963;-71
2022/02/22 04:40:14;;;;;;;32.40;12.40;;;;;;;3.34;78.25;98603.70;25202;1312;3026687;-72
2022/02/22 04:42:46;;;;;;;38.90;14.40;;;;;;;3.67;77.20;98604.13;25127;1312;3050727;-71
2022/02/22 04:45:16;;;;;;;31.10;13.40;;;;;;;3.68;77.15;98607.03;25155;1312;3028724;-71
2022/02/22 04:47:52;;;;;;;34.50;15.70;;;;;;;3.33;78.41;98612.21;25150;1312;3055686;-70
2022/02/22 04:50:22;;;;;;;41.90;15.70;;;;;;;3.16;79.54;98616.79;25174;1312;3026879;-74
2022/02/22 04:52:51;;;;;;;41.80;14.70;;;;;;;2.96;80.11;98615.91;25185;1312;3026818;-67
2022/02/22 04:55:20;;;;;;;33.40;15.40;;;;;;;2.71;81.25;98616.77;25209;1312;3027426;-65
2022/02/22 04:57:49;;;;;;;37.50;15.20;;;;;;;2.74;81.92;98615.64;25189;1312;3058460;-69
2022/02/22 05:00:18;;;;;;;32.90;13.20;;;;;;;2.93;81.96;98613.95;25132;1312;3026441;-73
2022/02/22 05:02:47;;;;;;;43.60;15.40;;;;;;;3.28;80.45;98613.12;25163;1311;3052500;-69
2022/02/22 05:05:18;;;;;;;29.80;12.60;;;;;;;3.26;80.24;98623.29;25186;1312;3027018;-70
2022/02/22 05:07:47;;;;;;;30.50;14.80;;;;;;;3.08;80.92;98626.14;25166;1312;3028367;-74
2022/02/22 05:10:16;;;;;;;40.50;16.30;;;;;;;2.98;81.39;98626.05;25177;1312;3051040;-69
2022/02/22 05:12:45;;;;;;;37.70;15.50;;;;;;;2.89;81.98;98621.91;25203;1312;3026466;-68
2022/02/22 05:15:14;;;;;;;24.30;11.90;;;;;;;3.01;81.81;98626.27;25150;1315;3052046;-71
2022/02/22 05:17:44;;;;;;;36.80;14.70;;;;;;;3.21;81.18;98622.30;25164;1312;3026851;-72
2022/02/22 05:20:33;;;;;;;32.60;14.10;;;;;;;3.62;79.79;98619.38;25144;1314;3056808;-73
2022/02/22 05:23:02;;;;;;;31.40;15.20;;;;;;;3.75;78.74;98621.23;25140;1313;3026571;-74
2022/02/22 05:25:31;;;;;;;34.20;14.50;;;;;;;3.62;79.29;98621.50;25179;1315;3052393;-71
2022/02/22 05:28:00;;;;;;;35.50;15.00;;;;;;;3.28;80.36;98625.61;25166;1312;3026492;-73
2022/02/22 05:30:29;;;;;;;37.00;14.30;;;;;;;3.29;80.61;98627.14;25207;1312;3050109;-71
2022/02/22 05:32:59;;;;;;;43.50;15.30;;;;;;;3.09;81.22;98635.98;25228;1312;3026905;-70
2022/02/22 05:35:28;;;;;;;24.10;11.60;;;;;;;2.96;82.41;98642.90;25192;1312;3048198;-73
2022/02/22 05:37:56;;;;;;;33.40;14.10;;;;;;;3.34;81.75;98640.56;25259;1312;3026668;-70
2022/02/22 05:40:25;;;;;;;38.50;13.30;;;;;;;3.67;79.89;98643.44;25231;1312;3070765;-69
2022/02/22 05:42:55;;;;;;;37.20;15.80;;;;;;;3.67;79.55;98647.61;25222;1312;3027945;-70
2022/02/22 05:45:23;;;;;;;30.60;16.00;;;;;;;3.43;79.90;98656.45;25200;1311;3028265;-66
2022/02/22 05:47:53;;;;;;;37.00;15.40;;;;;;;3.53;79.77;98651.35;25263;1312;3068747;-65
2022/02/22 05:50:22;;;;;;;44.30;16.60;;;;;;;3.26;80.04;98651.30;25288;1312;3028794;-74
2022/02/22 05:52:57;;;;;;;31.30;14.50;;;;;;;2.99;81.63;98650.40;25194;1312;3053423;-67
2022/02/22 05:55:26;;;;;;;37.10;15.90;;;;;;;3.63;80.02;98648.46;25218;1312;3070166;-73
2022/02/22 05:57:55;;;;;;;30.20;13.50;;;;;;;4.28;77.51;98644.75;25297;1312;3026605;-69
2022/02/22 06:00:25;;;;;;;33.20;15.80;;;;;;;4.23;76.33;98644.46;25233;1312;3028727;-72
2022/02/22 06:02:53;;;;;;;28.30;15.20;;;;;;;4.17;76.48;98641.30;25179;1312;3026380;-66
2022/02/22 06:05:22;;;;;;;35.60;16.30;;;;;;;4.01;76.77;98644.48;25305;1310;3048517;-70
2022/02/22 06:07:52;;;;;;;29.30;13.70;;;;;;;3.88;76.99;98645.77;25180;1312;3026520;-73
2022/02/22 06:10:20;;;;;;;30.00;14.40;;;;;;;3.74;77.14;98643.13;25240;1312;3027897;-70
2022/02/22 06:12:50;;;;;;;27.10;14.10;;;;;;;3.66;76.96;98641.58;25170;1312;3048135;-66
2022/02/22 06:15:20;;;;;;;31.00;13.60;;;;;;;3.26;78.10;98650.27;25208;1312;3027059;-74
2022/02/22 06:17:51;;;;;;;31.40;14.30;;;;;;;3.86;77.63;98638.73;25175;1315;3026359;-68
2022/02/22 06:20:20;;;;;;;39.00;16.00;;;;;;;3.92;75.88;98642.64;25177;1312;3026924;-70
2022/02/22 06:22:49;;;;;;;48.10;19.20;;;;;;;3.96;75.63;98640.20;25188;1312;3054094;-71
2022/02/22 06:25:18;;;;;;;63.90;23.60;;;;;;;3.87;75.66;98641.33;25168;1312;3028601;-73
2022/02/22 06:27:51;;;;;;;65.20;22.90;;;;;;;3.59;76.89;98642.41;25208;1312;3052235;-71
2022/02/22 06:30:21;;;;;;;79.60;27.00;;;;;;;3.57;76.90;98645.10;25188;1312;3054993;-75
2022/02/22 06:32:51;;;;;;;101.80;32.40;;;;;;;3.49;77.28;98643.55;25217;1312;3026639;-74
2022/02/22 06:35:21;;;;;;;109.00;31.80;;;;;;;3.43;77.98;98648.29;25196;1313;3026883;-77
2022/02/22 06:37:50;;;;;;;78.30;21.10;;;;;;;3.44;78.08;98651.39;25171;1313;3028484;-65
2022/02/22 06:40:19;;;;;;;118.00;33.30;;;;;;;4.01;76.62;98650.22;25176;1312;3029252;-70
2022/02/22 06:42:48;;;;;;;135.40;36.00;;;;;;;4.23;75.55;98647.22;25203;1312;3055578;-74
2022/02/22 06:45:17;;;;;;;135.70;36.30;;;;;;;4.27;75.13;98647.23;25105;1314;3028684;-67
2022/02/22 06:47:46;;;;;;;137.30;38.70;;;;;;;4.49;74.66;98647.95;25197;1312;3050884;-68
2022/02/22 06:50:15;;;;;;;149.20;41.60;;;;;;;4.40;74.50;98648.52;25161;1315;3026470;-73
2022/02/22 06:52:44;;;;;;;157.30;41.90;;;;;;;4.14;75.46;98650.11;25201;1313;3055772;-68
2022/02/22 06:55:13;;;;;;;170.60;45.50;;;;;;;4.00;76.38;98647.65;25193;1312;3026369;-77
2022/02/22 06:57:46;;;;;;;183.40;47.10;;;;;;;3.83;77.40;98648.57;25223;1312;3028739;-72
2022/02/22 07:00:18;;;;;;;136.10;36.70;;;;;;;3.99;77.35;98652.36;25268;1312;3051343;-72
2022/02/22 07:02:47;;;;;;;150.50;39.40;;;;;;;4.33;76.41;98654.59;25181;1315;3028795;-71
2022/02/22 07:05:18;;;;;;;146.60;42.00;;;;;;;4.93;74.73;98654.94;25162;1312;3047767;-72
2022/02/22 07:07:47;;;;;;;192.30;48.90;;;;;;;5.10;73.53;98645.95;25201;1312;3027577;-75
2022/02/22 07:10:16;;;;;;;193.60;49.60;;;;;;;4.90;74.25;98646.93;25136;1315;3026677;-77
2022/02/22 07:12:44;;;;;;;176.90;47.70;;;;;;;4.83;74.32;98639.47;25263;1312;3048057;-72
2022/02/22 07:15:13;;;;;;;193.30;49.40;;;;;;;4.71;74.90;98640.59;25151;1312;3026283;-73
2022/02/22 07:17:47;;;;;;;180.40;48.20;;;;;;;4.42;76.09;98642.16;25189;1312;3070081;-70
2022/02/22 07:20:16;;;;;;;188.90;50.80;;;;;;;4.56;75.95;98641.00;25193;1310;3028717;-70
2022/02/22 07:22:45;;;;;;;152.50;38.10;;;;;;;4.53;76.52;98638.38;25173;1312;3026371;-71
2022/02/22 07:25:16;;;;;;;164.90;42.10;;;;;;;4.88;75.63;98643.25;25198;1312;3026346;-69
2022/02/22 07:27:46;;;;;;;155.70;42.20;;;;;;;5.00;75.14;98651.30;25184;1312;3048333;-73
2022/02/22 07:30:16;;;;;;;166.50;41.40;;;;;;;5.14;75.02;98646.94;25214;1311;3028047;-77
2022/02/22 07:32:45;;;;;;;179.20;47.40;;;;;;;5.46;74.08;98639.73;25198;1310;3066855;-71
2022/02/22 07:35:14;;;;;;;160.00;43.30;;;;;;;5.16;74.95;98645.61;25158;1312;3026908;-71
2022/02/22 07:37:44;;;;;;;199.00;48.60;;;;;;;4.87;76.29;98641.37;25184;1312;3050440;-70
2022/02/22 07:40:15;;;;;;;169.90;45.10;;;;;;;4.64;77.50;98644.25;25180;1312;3028442;-72
2022/02/22 07:42:45;;;;;;;174.10;43.50;;;;;;;4.60;77.88;98646.16;25233;1312;3026991;-74
2022/02/22 07:45:15;;;;;;;139.00;37.30;;;;;;;4.65;77.82;98651.64;25203;1312;3028139;-74
2022/02/22 07:47:44;;;;;;;153.30;38.80;;;;;;;5.19;76.69;98648.22;25112;1312;3026929;-75
2022/02/22 07:50:13;;;;;;;165.10;43.90;;;;;;;5.64;74.42;98655.48;25191;1312;3026915;-73
2022/02/22 07:52:42;;;;;;;156.20;45.20;;;;;;;5.70;74.15;98652.04;25198;1312;3054401;-72
2022/02/22 07:55:11;;;;;;;160.00;44.20;;;;;;;5.56;74.75;98652.91;25169;1312;3026429;-74
2022/02/22 07:57:40;;;;;;;154.90;41.70;;;;;;;5.42;74.81;98651.73;25181;1315;3047488;-73
2022/02/22 08:00:18;;;;;;;162.80;44.20;;;;;;;5.16;75.97;98648.23;25138;1312;3054603;-68
2022/02/22 08:02:47;;;;;;;174.60;44.80;;;;;;;4.75;77.66;98661.41;25185;1313;3026200;-71
2022/02/22 08:05:16;;;;;;;148.70;37.80;;;;;;;4.63;78.79;98665.27;25186;1312;3051116;-69
2022/02/22 08:07:45;;;;;;;146.80;39.90;;;;;;;5.19;77.18;98660.77;25166;1312;3026605;-71
2022/02/22 08:10:15;;;;;;;165.10;44.90;;;;;;;5.82;74.98;98652.59;25159;1312;3026939;-72
2022/02/22 08:12:44;;;;;;;145.40;41.60;;;;;;;5.85;74.52;98653.96;25158;1312;3048762;-71
2022/02/22 08:15:14;;;;;;;169.00;46.90;;;;;;;5.82;74.46;98657.30;25165;1312;3026628;-70
2022/02/22 08:17:43;;;;;;;141.00;39.50;;;;;;;5.57;75.30;98655.84;25137;1313;3027110;-71
2022/02/22 08:20:12;;;;;;;176.90;48.10;;;;;;;5.67;75.00;98656.70;25204;1312;3051086;-71
2022/02/22 08:22:41;;;;;;;160.20;47.50;;;;;;;5.55;75.65;98659.27;25196;1312;3026397;-67
2022/02/22 08:25:10;;;;;;;124.20;35.90;;;;;;;5.72;75.16;98654.16;25180;1312;3070941;-75
2022/02/22 08:27:39;;;;;;;132.90;39.20;;;;;;;6.40;73.12;98648.06;25206;1313;3029021;-74
2022/02/22 08:30:08;;;;;;;151.80;43.30;;;;;;;6.79;71.56;98646.15;25145;1312;3051141;-71
2022/02/22 08:32:38;;;;;;;162.00;46.40;;;;;;;7.10;70.49;98642.80;25153;1312;3026638;-75
2022/02/22 08:35:07;;;;;;;169.60;46.70;;;;;;;6.97;70.70;98643.92;25232;1312;3026304;-66
2022/02/22 08:37:36;;;;;;;148.20;41.80;;;;;;;6.68;71.56;98643.14;25167;1312;3050996;-73
2022/02/22 08:40:06;;;;;;;132.60;41.10;;;;;;;6.59;72.05;98645.38;25193;1312;3028212;-71
2022/02/22 08:42:35;;;;;;;125.80;36.50;;;;;;;6.23;72.90;98652.63;25125;1312;3056113;-73
2022/02/22 08:45:05;;;;;;;141.90;40.80;;;;;;;6.19;73.13;98645.56;25188;1312;3027248;-74
2022/02/22 08:47:37;;;;;;;125.80;37.70;;;;;;;6.09;73.78;98642.11;25157;1312;3049796;-71
2022/02/22 08:50:14;;;;;;;92.30;27.60;;;;;;;6.16;73.59;98645.38;25159;1312;3055830;-73
2022/02/22 08:52:44;;;;;;;83.70;26.40;;;;;;;6.74;71.97;98638.80;25211;1312;3026705;-69
2022/02/22 08:55:13;;;;;;;79.60;27.30;;;;;;;7.06;70.47;98637.66;25172;1312;3026650;-72
2022/02/22 08:57:42;;;;;;;81.90;26.60;;;;;;;6.89;70.73;98631.80;25220;1312;3052506;-71
2022/02/22 09:00:11;;;;;;;80.70;28.50;;;;;;;6.81;71.17;98634.23;25194;1312;3026902;-72
2022/02/22 09:02:40;;;;;;;90.20;29.50;;;;;;;6.68;71.56;98639.48;25264;1312;3049233;-74
2022/02/22 09:05:09;;;;;;;80.00;27.90;;;;;;;6.60;72.04;98635.25;25141;1312;3026886;-71
2022/02/22 09:07:45;;;;;;;82.60;29.10;;;;;;;6.59;71.94;98634.25;25170;1313;3056794;-73
2022/02/22 09:10:14;;;;;;;113.10;32.80;;;;;;;6.33;73.15;98634.70;25156;1315;3027232;-69
2022/02/22 09:12:44;;;;;;;119.20;35.90;;;;;;;6.24;73.38;98629.61;25160;1312;3027541;-73
2022/02/22 09:15:14;;;;;;;97.00;29.30;;;;;;;6.26;73.84;98622.76;25201;1312;3026887;-75
2022/02/22 09:17:44;;;;;;;80.10;25.00;;;;;;;6.93;72.03;98612.60;25213;1312;3049655;-68
2022/02/22 09:20:14;;;;;;;85.50;26.90;;;;;;;7.51;69.67;98614.23;25175;1312;3026368;-69
2022/02/22 09:22:44;;;;;;;90.60;29.90;;;;;;;7.10;70.43;98620.85;24923;1312;3372822;-74
2022/02/22 09:25:14;;;;;;;98.10;31.10;;;;;;;7.20;70.49;98617.11;25246;1312;3027508;-71
2022/02/22 09:27:43;;;;;;;96.90;30.80;;;;;;;7.18;70.46;98617.96;25228;1312;3055067;-72
2022/02/22 09:30:14;;;;;;;88.20;28.90;;;;;;;6.96;71.02;98623.80;25167;1312;3028617;-71
2022/02/22 09:32:44;;;;;;;83.70;28.50;;;;;;;6.92;71.30;98616.69;25177;1312;3048873;-74
2022/02/22 09:35:17;;;;;;;62.60;23.60;;;;;;;6.81;71.75;98617.68;25156;1312;3028657;-72
2022/02/22 09:37:46;;;;;;;72.80;25.50;;;;;;;6.82;71.66;98620.77;25155;1312;3027531;-70
2022/02/22 09:40:16;;;;;;;57.70;21.10;;;;;;;6.90;71.48;98615.79;25157;1315;3028364;-75
2022/02/22 09:42:47;;;;;;;52.80;18.50;;;;;;;6.86;71.58;98611.84;25174;1312;3027767;-68
2022/02/22 09:45:16;;;;;;;40.50;16.60;;;;;;;7.60;69.38;98601.77;25167;1312;3026847;-71
2022/02/22 09:47:45;;;;;;;39.70;16.90;;;;;;;7.95;67.79;98599.25;25118;1312;3070301;-71
2022/02/22 09:50:15;;;;;;;47.10;18.20;;;;;;;8.12;67.14;98595.22;25175;1312;3026815;-74
2022/02/22 09:52:44;;;;;;;53.40;20.40;;;;;;;7.92;67.71;98593.35;25159;1312;3050237;-73
2022/02/22 09:55:13;;;;;;;33.90;16.30;;;;;;;7.84;68.20;98597.87;25151;1312;3028540;-73
2022/02/22 09:57:42;;;;;;;42.60;19.10;;;;;;;7.72;68.50;98597.20;25145;1312;3053023;-72
2022/02/22 10:00:18;;;;;;;41.90;15.50;;;;;;;7.67;68.96;98595.05;25192;1312;3027876;-74
2022/02/22 10:02:48;;;;;;;30.30;15.50;;;;;;;7.74;68.85;98593.12;25140;1312;3051569;-70
2022/02/22 10:05:21;;;;;;;38.40;17.50;;;;;;;8.01;67.68;98585.08;25184;1312;3028543;-73
2022/02/22 10:07:56;;;;;;;40.60;16.20;;;;;;;7.95;67.90;98590.75;25158;1312;3059313;-68
2022/02/22 10:10:37;;;;;;;32.40;14.90;;;;;;;8.16;67.22;98584.33;25238;1312;3050170;-72
2022/02/22 10:13:08;;;;;;;38.00;15.80;;;;;;;8.26;65.79;98580.73;25165;1312;3054451;-71
2022/02/22 10:15:41;;;;;;;34.80;15.50;;;;;;;8.31;65.29;98584.41;25214;1312;3026214;-78
2022/02/22 10:18:11;;;;;;;33.50;14.10;;;;;;;8.47;65.06;98584.10;25178;1312;3070197;-74
2022/02/22 10:20:40;;;;;;;33.40;13.80;;;;;;;8.63;64.76;98575.52;25152;1312;3026950;-72
2022/02/22 10:23:10;;;;;;;36.50;15.60;;;;;;;8.62;64.33;98577.66;25154;1312;3028608;-72
2022/02/22 10:25:39;;;;;;;31.40;14.00;;;;;;;8.65;64.44;98570.20;25164;1312;3070329;-71
2022/02/22 10:28:15;;;;;;;33.50;14.90;;;;;;;8.80;64.01;98570.42;25181;1312;3026461;-75
2022/02/22 10:30:44;;;;;;;27.80;13.40;;;;;;;8.90;63.59;98576.88;25157;1312;3051192;-72
2022/02/22 10:33:17;;;;;;;29.00;14.10;;;;;;;9.01;63.19;98579.05;25133;1312;3026533;-75
2022/02/22 10:35:51;;;;;;;29.90;14.40;;;;;;;9.08;63.30;98580.73;25185;1312;3055505;-77
2022/02/22 10:38:26;;;;;;;36.70;14.10;;;;;;;9.24;62.36;98582.61;25207;1312;3051127;-74
2022/02/22 10:41:03;;;;;;;29.60;15.40;;;;;;;9.02;62.73;98583.90;25172;1312;3071097;-75
2022/02/22 10:43:33;;;;;;;34.60;14.00;;;;;;;9.13;62.29;98574.64;25211;1312;3047605;-78
2022/02/22 10:46:06;;;;;;;29.30;13.10;;;;;;;9.05;62.54;98574.42;25171;1312;3026307;-75
2022/02/22 10:48:37;;;;;;;37.30;13.40;;;;;;;9.09;62.84;98579.41;25154;1312;3054309;-72
2022/02/22 10:51:11;;;;;;;29.50;13.10;;;;;;;9.18;62.47;98583.54;25219;1312;3026403;-73
2022/02/22 10:53:42;;;;;;;30.60;14.50;;;;;;;9.26;61.87;98585.96;25175;1312;3049423;-71
2022/02/22 10:56:12;;;;;;;38.70;13.40;;;;;;;9.17;61.94;98593.23;25224;1312;3026586;-73
2022/02/22 10:58:44;;;;;;;32.60;13.10;;;;;;;9.26;61.42;98589.23;25178;1312;3026798;-75
2022/02/22 11:01:14;;;;;;;31.10;12.30;;;;;;;9.25;60.59;98583.55;25196;1312;3028520;-69
2022/02/22 11:03:44;;;;;;;31.80;13.30;;;;;;;9.17;60.77;98584.27;25189;1312;3028114;-74
2022/02/22 11:06:14;;;;;;;38.40;13.40;;;;;;;9.10;60.93;98590.18;25205;1312;3026511;-69
2022/02/22 11:08:44;;;;;;;31.10;13.00;;;;;;;9.10;60.85;98590.71;25129;1312;3026751;-73
2022/02/22 11:11:34;;;;;;;27.00;13.70;;;;;;;8.93;61.30;98594.34;25167;1312;3027295;-73
2022/02/22 11:14:04;;;;;;;40.30;15.20;;;;;;;8.96;61.47;98582.41;25187;1312;3050164;-73
2022/02/22 11:16:47;;;;;;;38.90;13.50;;;;;;;9.01;61.59;98588.55;25143;1312;3027517;-71
2022/02/22 11:19:21;;;;;;;37.10;13.90;;;;;;;9.14;61.25;98583.79;25193;1312;3051181;-74
2022/02/22 11:21:52;;;;;;;39.50;14.10;;;;;;;9.18;61.17;98580.37;25178;1312;3026249;-79